createdAt,value
2023-03-11T00:00:08.234Z,0.18
2023-03-11T00:01:09.124Z,0.3
2023-03-11T00:02:10.109Z,0.29
2023-03-11T00:03:11.046Z,0.27
2023-03-11T00:04:12.061Z,0.23
2023-03-11T00:05:13.154Z,0
2023-03-11T00:06:14.087Z,0.21
2023-03-11T00:07:15.036Z,0.29
2023-03-11T00:08:16.100Z,0.38
2023-03-11T00:09:17.009Z,0.16
2023-03-11T00:10:18.039Z,0.45
2023-03-11T00:11:19.074Z,0.34
2023-03-11T00:12:20.028Z,0.46
2023-03-11T00:13:21.020Z,0
2023-03-11T00:14:22.019Z,0.5
2023-03-11T00:15:23.059Z,0.28
2023-03-11T00:16:24.076Z,0.09
2023-03-11T00:17:25.053Z,0
2023-03-11T00:18:26.147Z,0.11
2023-03-11T00:19:27.059Z,0.29
2023-03-11T00:20:28.049Z,0.16
2023-03-11T00:21:29.079Z,0.52
2023-03-11T00:22:30.043Z,0.08
2023-03-11T00:23:31.039Z,0.07
2023-03-11T00:24:32.047Z,0
2023-03-11T00:25:33.058Z,0
2023-03-11T00:26:34.072Z,0
2023-03-11T00:27:35.057Z,0.09
2023-03-11T00:28:36.047Z,0
2023-03-11T00:29:37.048Z,0
2023-03-11T00:30:38.154Z,0.18
2023-03-11T00:31:39.046Z,0.12
2023-03-11T00:32:40.183Z,0.42
2023-03-11T00:33:41.091Z,0.19
2023-03-11T00:34:42.066Z,0.35
2023-03-11T00:35:43.142Z,0
2023-03-11T00:36:44.085Z,0
2023-03-11T00:37:45.105Z,0.12
2023-03-11T00:38:46.102Z,0
2023-03-11T00:39:47.070Z,0
2023-03-11T00:40:48.091Z,0.11
2023-03-11T00:41:49.089Z,0
2023-03-11T00:42:50.107Z,0
2023-03-11T00:43:51.084Z,0.07
2023-03-11T00:44:51.956Z,0
2023-03-11T00:45:53.077Z,0
2023-03-11T00:46:54.093Z,0.13
2023-03-11T00:47:55.106Z,0.23
2023-03-11T00:48:56.012Z,0.34
2023-03-11T00:49:57.085Z,0.39
2023-03-11T00:50:58.144Z,0.38
2023-03-11T00:51:59.083Z,0.43
2023-03-11T00:53:00.184Z,0.47
2023-03-11T00:54:01.114Z,0.08
2023-03-11T00:55:02.103Z,0.25
2023-03-11T00:56:03.077Z,0.08
2023-03-11T00:57:04.130Z,0.28
2023-03-11T00:58:05.121Z,0.12
2023-03-11T00:59:06.083Z,0.27
2023-03-11T01:00:07.109Z,0.68
2023-03-11T01:01:08.145Z,0.6
2023-03-11T01:02:09.088Z,0.57
2023-03-11T01:03:10.130Z,0.85
2023-03-11T01:04:11.078Z,1.5
2023-03-11T01:05:12.120Z,0.91
2023-03-11T01:06:12.987Z,0.68
2023-03-11T01:07:14.090Z,0.69
2023-03-11T01:08:15.042Z,0.21
2023-03-11T01:09:16.138Z,0.83
2023-03-11T01:10:17.166Z,0.86
2023-03-11T01:11:18.045Z,0.64
2023-03-11T01:12:19.085Z,0.38
2023-03-11T01:13:20.063Z,0.75
2023-03-11T01:14:21.089Z,0.44
2023-03-11T01:15:22.073Z,0.22
2023-03-11T01:16:23.138Z,0.53
2023-03-11T01:17:24.049Z,0.73
2023-03-11T01:18:25.083Z,0.61
2023-03-11T01:19:26.123Z,0.49
2023-03-11T01:20:27.066Z,0.52
2023-03-11T01:21:28.121Z,1.06
2023-03-11T01:22:29.105Z,0.47
2023-03-11T01:23:30.115Z,0.41
2023-03-11T01:24:31.105Z,0.39
2023-03-11T01:25:32.108Z,0.63
2023-03-11T01:26:33.162Z,0.33
2023-03-11T01:27:34.025Z,0.71
2023-03-11T01:28:35.143Z,0.7
2023-03-11T01:29:36.091Z,0.56
2023-03-11T01:30:37.123Z,1.43
2023-03-11T01:31:38.033Z,0.6
2023-03-11T01:32:39.162Z,1.31
2023-03-11T01:33:40.102Z,0.77
2023-03-11T01:34:41.171Z,1.28
2023-03-11T01:35:42.112Z,1.1
2023-03-11T01:36:43.150Z,0.59
2023-03-11T01:37:44.112Z,1.13
2023-03-11T01:38:45.095Z,0.65
2023-03-11T01:39:46.136Z,0.89
2023-03-11T01:40:47.101Z,0.68
2023-03-11T01:41:48.124Z,0.35
2023-03-11T01:42:49.100Z,0.61
2023-03-11T01:43:50.629Z,0.77
2023-03-11T01:44:52.162Z,0.63
2023-03-11T01:45:53.080Z,0.61
2023-03-11T01:46:54.272Z,0.56
2023-03-11T01:47:55.063Z,0.49
2023-03-11T01:48:56.128Z,0.35
2023-03-11T01:49:57.100Z,0.51
2023-03-11T01:50:58.127Z,0.51
2023-03-11T01:51:59.129Z,0.39
2023-03-11T01:53:00.126Z,0.53
2023-03-11T01:54:01.179Z,0.15
2023-03-11T01:55:02.176Z,0.41
2023-03-11T01:56:03.025Z,0.23
2023-03-11T01:57:04.258Z,0.34
2023-03-11T01:58:05.063Z,0.45
2023-03-11T01:59:05.983Z,0.23
2023-03-11T02:00:07.118Z,0.11
2023-03-11T02:01:08.101Z,0.18
2023-03-11T02:02:09.163Z,0.06
2023-03-11T02:03:10.186Z,0.18
2023-03-11T02:04:11.095Z,0.22
2023-03-11T02:05:12.079Z,0.41
2023-03-11T02:06:13.100Z,0.2
2023-03-11T02:07:14.085Z,0.53
2023-03-11T02:08:15.138Z,0.42
2023-03-11T02:09:16.118Z,0.55
2023-03-11T02:10:17.105Z,1.01
2023-03-11T02:11:18.047Z,1.01
2023-03-11T02:12:19.112Z,0.74
2023-03-11T02:13:20.152Z,0.37
2023-03-11T02:14:21.129Z,0.82
2023-03-11T02:15:22.018Z,1.24
2023-03-11T02:16:23.154Z,0.89
2023-03-11T02:17:24.066Z,1.01
2023-03-11T02:18:25.126Z,0.52
2023-03-11T02:19:26.124Z,0.5
2023-03-11T02:20:27.046Z,0.32
2023-03-11T02:21:28.087Z,0.29
2023-03-11T02:22:29.168Z,0.46
2023-03-11T02:23:30.088Z,0.36
2023-03-11T02:24:31.134Z,0.59
2023-03-11T02:25:31.999Z,0.36
2023-03-11T02:26:33.126Z,1.24
2023-03-11T02:27:34.105Z,1.04
2023-03-11T02:28:35.160Z,0.67
2023-03-11T02:29:36.150Z,0.81
2023-03-11T02:30:37.174Z,0.47
2023-03-11T02:31:38.248Z,0.09
2023-03-11T02:32:39.149Z,0.3
2023-03-11T02:33:40.179Z,0.72
2023-03-11T02:34:41.130Z,0.34
2023-03-11T02:35:42.218Z,0.2
2023-03-11T02:36:43.170Z,0
2023-03-11T02:37:44.052Z,0.33
2023-03-11T02:38:45.208Z,0.09
2023-03-11T02:39:46.152Z,0.37
2023-03-11T02:40:47.154Z,0.17
2023-03-11T02:41:48.168Z,0
2023-03-11T02:42:49.152Z,0.12
2023-03-11T02:43:50.108Z,0
2023-03-11T02:44:51.090Z,0.29
2023-03-11T02:45:52.163Z,0.11
2023-03-11T02:46:53.256Z,0.2
2023-03-11T02:47:54.106Z,0.27
2023-03-11T02:48:55.125Z,0.23
2023-03-11T02:49:56.156Z,0.19
2023-03-11T02:50:57.114Z,0
2023-03-11T02:51:58.184Z,0
2023-03-11T02:52:59.130Z,0
2023-03-11T02:54:00.143Z,0.28
2023-03-11T02:55:01.150Z,0.17
2023-03-11T02:56:02.150Z,0.2
2023-03-11T02:57:03.064Z,0.07
2023-03-11T02:58:04.284Z,0.08
2023-03-11T02:59:05.145Z,0.36
2023-03-11T03:00:06.061Z,1
2023-03-11T03:01:07.177Z,1.04
2023-03-11T03:02:08.169Z,1.03
2023-03-11T03:03:09.202Z,2.28
2023-03-11T03:04:10.129Z,1.7
2023-03-11T03:05:11.096Z,2.04
2023-03-11T03:06:12.203Z,1.33
2023-03-11T03:07:13.100Z,2
2023-03-11T03:08:14.163Z,2
2023-03-11T03:09:15.178Z,1.76
2023-03-11T03:10:16.100Z,1.74
2023-03-11T03:11:17.165Z,1.58
2023-03-11T03:12:18.161Z,1.77
2023-03-11T03:13:19.141Z,1.76
2023-03-11T03:14:20.096Z,1.99
2023-03-11T03:15:21.205Z,1.2
2023-03-11T03:16:22.299Z,1.25
2023-03-11T03:17:23.183Z,1.67
2023-03-11T03:18:24.121Z,1.01
2023-03-11T03:19:25.180Z,1.63
2023-03-11T03:20:26.104Z,2.27
2023-03-11T03:21:27.095Z,2.12
2023-03-11T03:22:28.129Z,1.46
2023-03-11T03:23:29.161Z,2.2
2023-03-11T03:24:30.083Z,1.83
2023-03-11T03:25:31.142Z,1.33
2023-03-11T03:26:32.182Z,1.66
2023-03-11T03:27:33.106Z,1.23
2023-03-11T03:28:34.122Z,0.74
2023-03-11T03:29:35.141Z,1.16
2023-03-11T03:30:36.141Z,1.63
2023-03-11T03:31:37.204Z,1.74
2023-03-11T03:32:38.176Z,1.65
2023-03-11T03:33:39.101Z,1.61
2023-03-11T03:34:40.141Z,1.34
2023-03-11T03:35:41.155Z,1.55
2023-03-11T03:36:42.164Z,2.54
2023-03-11T03:37:43.125Z,1.84
2023-03-11T03:38:44.241Z,2.6
2023-03-11T03:39:45.149Z,2.07
2023-03-11T03:40:46.083Z,1.2
2023-03-11T03:41:47.147Z,0.94
2023-03-11T03:42:48.140Z,1.39
2023-03-11T03:43:49.125Z,0.96
2023-03-11T03:44:50.127Z,0.81
2023-03-11T03:45:51.190Z,0.73
2023-03-11T03:46:52.145Z,1.48
2023-03-11T03:47:53.146Z,0.85
2023-03-11T03:48:54.141Z,0.54
2023-03-11T03:49:55.123Z,0.7
2023-03-11T03:50:56.152Z,0.52
2023-03-11T03:51:57.210Z,1.01
2023-03-11T03:52:58.104Z,0.91
2023-03-11T03:53:59.141Z,0.78
2023-03-11T03:55:00.142Z,0.87
2023-03-11T03:56:01.136Z,1.86
2023-03-11T03:57:02.217Z,2.07
2023-03-11T03:58:03.250Z,1.25
2023-03-11T03:59:04.486Z,0.74
2023-03-11T04:00:05.163Z,1.62
2023-03-11T04:01:06.185Z,1.3
2023-03-11T04:02:07.256Z,1.66
2023-03-11T04:03:08.241Z,1.18
2023-03-11T04:04:09.171Z,0.7
2023-03-11T04:05:10.161Z,1.05
2023-03-11T04:06:11.167Z,1.6
2023-03-11T04:07:12.171Z,2.56
2023-03-11T04:08:13.127Z,1.13
2023-03-11T04:09:14.156Z,2.34
2023-03-11T04:10:15.198Z,1.62
2023-03-11T04:11:16.166Z,1.22
2023-03-11T04:12:17.193Z,1.44
2023-03-11T04:13:18.187Z,2.14
2023-03-11T04:14:19.152Z,0.97
2023-03-11T04:15:20.226Z,1.05
2023-03-11T04:16:21.232Z,1.72
2023-03-11T04:17:22.203Z,1.8
2023-03-11T04:18:23.269Z,1.28
2023-03-11T04:19:24.146Z,1.67
2023-03-11T04:20:25.153Z,1.76
2023-03-11T04:21:26.180Z,0.98
2023-03-11T04:22:27.188Z,1.04
2023-03-11T04:23:28.178Z,2.61
2023-03-11T04:24:29.168Z,1.94
2023-03-11T04:25:30.208Z,2.29
2023-03-11T04:26:31.132Z,2.01
2023-03-11T04:27:32.209Z,2.05
2023-03-11T04:28:33.207Z,1.84
2023-03-11T04:29:34.205Z,1.25
2023-03-11T04:30:35.152Z,1.03
2023-03-11T04:31:36.170Z,3.26
2023-03-11T04:32:37.274Z,2.45
2023-03-11T04:33:38.192Z,2.34
2023-03-11T04:34:39.175Z,1.6
2023-03-11T04:35:40.203Z,1.46
2023-03-11T04:36:41.091Z,2.03
2023-03-11T04:37:42.269Z,1.87
2023-03-11T04:38:43.261Z,2.46
2023-03-11T04:39:44.166Z,2.45
2023-03-11T04:40:45.208Z,3.17
2023-03-11T04:41:46.189Z,2.59
2023-03-11T04:42:47.187Z,1.26
2023-03-11T04:43:48.160Z,2.58
2023-03-11T04:44:49.185Z,2.4
2023-03-11T04:45:50.208Z,1.08
2023-03-11T04:46:51.247Z,1.88
2023-03-11T04:47:52.292Z,2.2
2023-03-11T04:48:53.200Z,1.13
2023-03-11T04:49:54.256Z,1.81
2023-03-11T04:50:55.207Z,1.87
2023-03-11T04:51:56.220Z,2.2
2023-03-11T04:52:57.168Z,1.45
2023-03-11T04:53:58.239Z,2.08
2023-03-11T04:54:59.159Z,1
2023-03-11T04:56:00.220Z,1.14
2023-03-11T04:57:01.179Z,2.22
2023-03-11T04:58:02.241Z,1.16
2023-03-11T04:59:03.158Z,0.86
2023-03-11T05:00:04.680Z,1.06
2023-03-11T05:01:06.262Z,1.29
2023-03-11T05:02:07.098Z,1.31
2023-03-11T05:03:08.190Z,2.78
2023-03-11T05:04:09.257Z,1.75
2023-03-11T05:05:10.205Z,1.71
2023-03-11T05:06:11.139Z,1.57
2023-03-11T05:07:12.180Z,0.92
2023-03-11T05:08:13.172Z,1.16
2023-03-11T05:09:14.125Z,1.55
2023-03-11T05:10:15.286Z,1.46
2023-03-11T05:11:16.159Z,1.27
2023-03-11T05:12:17.166Z,1.44
2023-03-11T05:13:18.188Z,0.99
2023-03-11T05:14:19.226Z,1.43
2023-03-11T05:15:20.242Z,1.38
2023-03-11T05:16:21.198Z,1.44
2023-03-11T05:17:22.199Z,0.87
2023-03-11T05:18:23.120Z,1.58
2023-03-11T05:19:24.201Z,1.49
2023-03-11T05:20:25.259Z,1.46
2023-03-11T05:21:26.198Z,1.06
2023-03-11T05:22:27.207Z,1.03
2023-03-11T05:23:28.215Z,1.85
2023-03-11T05:24:29.186Z,1.41
2023-03-11T05:25:30.246Z,1.11
2023-03-11T05:26:31.109Z,0.96
2023-03-11T05:27:32.180Z,0.58
2023-03-11T05:28:33.245Z,1.51
2023-03-11T05:29:34.160Z,2.3
2023-03-11T05:30:35.199Z,1.56
2023-03-11T05:31:36.292Z,1.38
2023-03-11T05:32:37.146Z,1.69
2023-03-11T05:33:38.278Z,0.98
2023-03-11T05:34:39.241Z,1.84
2023-03-11T05:35:40.285Z,1.58
2023-03-11T05:36:41.210Z,1.07
2023-03-11T05:37:42.181Z,0.87
2023-03-11T05:38:43.226Z,0.97
2023-03-11T05:39:44.209Z,0.83
2023-03-11T05:40:45.248Z,1.2
2023-03-11T05:41:46.184Z,0.92
2023-03-11T05:42:47.229Z,1.32
2023-03-11T05:43:48.238Z,2.66
2023-03-11T05:44:49.174Z,1.46
2023-03-11T05:45:50.188Z,0.69
2023-03-11T05:46:51.210Z,1.14
2023-03-11T05:47:52.184Z,1.62
2023-03-11T05:48:53.187Z,1.34
2023-03-11T05:49:54.188Z,1.56
2023-03-11T05:50:55.234Z,1.62
2023-03-11T05:51:58.607Z,1.59
2023-03-11T05:52:57.226Z,0.88
2023-03-11T05:53:58.207Z,1.24
2023-03-11T05:54:59.306Z,1.69
2023-03-11T05:56:00.227Z,1.73
2023-03-11T05:57:01.253Z,2.64
2023-03-11T05:58:02.255Z,1.29
2023-03-11T05:59:03.311Z,1.56
2023-03-11T06:00:05.215Z,1.44
2023-03-11T06:01:06.209Z,1.5
2023-03-11T06:02:07.262Z,0.91
2023-03-11T06:03:08.222Z,1.34
2023-03-11T06:04:09.420Z,0.85
2023-03-11T06:05:13.039Z,1.11
2023-03-11T06:06:11.182Z,0.81
2023-03-11T06:07:12.246Z,1
2023-03-11T06:08:13.208Z,0.99
2023-03-11T06:09:14.190Z,0.91
2023-03-11T06:10:15.190Z,0.39
2023-03-11T06:11:16.206Z,1.02
2023-03-11T06:12:17.181Z,1.03
2023-03-11T06:13:18.188Z,1.74
2023-03-11T06:14:19.253Z,0.78
2023-03-11T06:15:20.220Z,1.02
2023-03-11T06:16:21.311Z,0.45
2023-03-11T06:17:22.228Z,0.74
2023-03-11T06:18:23.282Z,0.63
2023-03-11T06:19:24.220Z,0.9
2023-03-11T06:20:25.283Z,0.53
2023-03-11T06:21:26.222Z,0.72
2023-03-11T06:22:27.193Z,0.33
2023-03-11T06:23:28.249Z,0.49
2023-03-11T06:24:29.220Z,0.53
2023-03-11T06:25:30.184Z,0.68
2023-03-11T06:26:31.252Z,0.79
2023-03-11T06:27:32.280Z,0.5
2023-03-11T06:28:33.180Z,0.57
2023-03-11T06:29:34.169Z,0.83
2023-03-11T06:30:35.200Z,1.06
2023-03-11T06:31:36.235Z,0.57
2023-03-11T06:32:37.376Z,0.3
2023-03-11T06:33:38.238Z,0.67
2023-03-11T06:34:39.261Z,0.26
2023-03-11T06:35:40.234Z,0.44
2023-03-11T06:36:41.241Z,0.56
2023-03-11T06:37:42.201Z,0.53
2023-03-11T06:38:43.268Z,0.79
2023-03-11T06:39:44.240Z,0.71
2023-03-11T06:40:45.219Z,0.83
2023-03-11T06:41:46.200Z,0.44
2023-03-11T06:42:47.200Z,1.18
2023-03-11T06:43:48.244Z,0.73
2023-03-11T06:44:49.196Z,0.53
2023-03-11T06:45:50.296Z,0.78
2023-03-11T06:46:51.254Z,0.36
2023-03-11T06:47:52.428Z,1.3
2023-03-11T06:48:53.326Z,0.92
2023-03-11T06:49:54.263Z,1.44
2023-03-11T06:50:55.162Z,0.67
2023-03-11T06:51:56.200Z,0.52
2023-03-11T06:52:57.241Z,0.13
2023-03-11T06:53:58.225Z,0.78
2023-03-11T06:54:59.168Z,0.99
2023-03-11T06:56:00.259Z,0.94
2023-03-11T06:57:01.293Z,1.19
2023-03-11T06:58:02.325Z,0.4
2023-03-11T06:59:03.230Z,0.51
2023-03-11T07:00:04.887Z,1.37
2023-03-11T07:01:06.319Z,2.19
2023-03-11T07:02:07.235Z,0.98
2023-03-11T07:03:08.210Z,1.15
2023-03-11T07:04:09.410Z,0.8
2023-03-11T07:05:10.345Z,0.82
2023-03-11T07:06:11.221Z,0.6
2023-03-11T07:09:06.412Z,0.81
2023-03-11T07:10:07.340Z,1.02
2023-03-11T07:11:08.144Z,1.56
2023-03-11T07:12:09.213Z,0.97
2023-03-11T07:13:10.272Z,0.64
2023-03-11T07:14:11.196Z,0.62
2023-03-11T07:15:12.211Z,1.07
2023-03-11T07:16:13.255Z,0.51
2023-03-11T07:17:14.213Z,0.43
2023-03-11T07:18:15.298Z,0.69
2023-03-11T07:19:16.469Z,0.55
2023-03-11T07:20:17.679Z,1.2
2023-03-11T07:21:18.855Z,0.52
2023-03-11T07:22:19.171Z,0.76
2023-03-11T07:23:20.392Z,1.08
2023-03-11T07:24:21.200Z,0.34
2023-03-11T07:25:22.329Z,0.97
2023-03-11T07:26:23.276Z,0.91
2023-03-11T07:27:24.225Z,0.46
2023-03-11T07:28:25.233Z,1.17
2023-03-11T07:29:26.355Z,1.06
2023-03-11T07:30:27.208Z,1.05
2023-03-11T07:31:28.269Z,0.79
2023-03-11T07:32:29.367Z,1.15
2023-03-11T07:33:31.678Z,1.21
2023-03-11T07:34:31.401Z,1.89
2023-03-11T07:35:32.285Z,0.68
2023-03-11T07:36:33.159Z,1.35
2023-03-11T07:37:34.175Z,1.42
2023-03-11T07:38:35.329Z,0.49
2023-03-11T07:39:36.315Z,1.07
2023-03-11T07:40:37.226Z,1.01
2023-03-11T07:41:38.287Z,0.48
2023-03-11T07:42:39.264Z,0.57
2023-03-11T07:43:40.283Z,1.27
2023-03-11T07:44:41.292Z,0.91
2023-03-11T07:45:42.330Z,0.44
2023-03-11T07:46:43.203Z,1.6
2023-03-11T07:47:44.415Z,1.06
2023-03-11T07:48:45.373Z,1.14
2023-03-11T07:49:46.308Z,0.88
2023-03-11T07:50:47.296Z,1.03
2023-03-11T07:51:48.244Z,1.5
2023-03-11T07:52:49.296Z,1.84
2023-03-11T07:53:50.281Z,1.03
2023-03-11T07:54:51.253Z,2.28
2023-03-11T07:55:52.268Z,1.21
2023-03-11T07:56:53.272Z,0.75
2023-03-11T07:57:54.232Z,0.65
2023-03-11T07:58:55.222Z,1.11
2023-03-11T07:59:56.195Z,1.65
2023-03-11T08:00:57.257Z,1.08
2023-03-11T08:01:58.281Z,0.74
2023-03-11T08:02:59.315Z,0.46
2023-03-11T08:04:00.429Z,0.68
2023-03-11T08:05:01.310Z,1.21
2023-03-11T08:06:02.233Z,0.72
2023-03-11T08:07:03.322Z,0.5
2023-03-11T08:08:04.940Z,0.45
2023-03-11T08:09:06.362Z,0.58
2023-03-11T08:10:07.314Z,1.16
2023-03-11T08:11:08.225Z,0.89
2023-03-11T08:12:09.301Z,1.59
2023-03-11T08:13:10.259Z,0.82
2023-03-11T08:14:11.169Z,0.94
2023-03-11T08:15:12.318Z,1.26
2023-03-11T08:16:13.447Z,0.53
2023-03-11T08:17:14.355Z,0.82
2023-03-11T08:18:15.330Z,0.96
2023-03-11T08:19:16.222Z,1.11
2023-03-11T08:20:17.246Z,0.75
2023-03-11T08:21:18.253Z,1.54
2023-03-11T08:22:19.261Z,0.96
2023-03-11T08:23:20.252Z,0.7
2023-03-11T08:24:21.275Z,0.57
2023-03-11T08:25:22.353Z,1.06
2023-03-11T08:26:23.513Z,1.7
2023-03-11T08:27:24.291Z,0.71
2023-03-11T08:28:25.253Z,0.45
2023-03-11T08:29:26.268Z,0.73
2023-03-11T08:30:27.395Z,1.73
2023-03-11T08:31:28.517Z,1.43
2023-03-11T08:32:29.262Z,0.57
2023-03-11T08:33:30.253Z,0.28
2023-03-11T08:34:31.248Z,0.6
2023-03-11T08:35:32.592Z,0.65
2023-03-11T08:36:33.360Z,0.58
2023-03-11T08:37:34.348Z,0.6
2023-03-11T08:38:35.268Z,0.82
2023-03-11T08:39:36.283Z,2.12
2023-03-11T08:40:37.314Z,0.86
2023-03-11T08:41:38.232Z,0.8
2023-03-11T08:42:39.364Z,1.08
2023-03-11T08:43:40.398Z,0.81
2023-03-11T08:44:41.352Z,0.66
2023-03-11T08:45:42.592Z,0.79
2023-03-11T08:46:43.600Z,1.14
2023-03-11T08:47:44.273Z,0.63
2023-03-11T08:48:45.251Z,0.61
2023-03-11T08:49:46.269Z,0.65
2023-03-11T08:50:54.152Z,0.55
2023-03-11T08:51:49.250Z,1.07
2023-03-11T08:52:50.310Z,0.84
2023-03-11T08:53:51.327Z,0.5
2023-03-11T08:54:52.271Z,0.6
2023-03-11T08:55:53.794Z,0.65
2023-03-11T08:56:55.356Z,1.48
2023-03-11T08:57:56.218Z,1.38
2023-03-11T08:58:57.241Z,1.23
2023-03-11T08:59:58.295Z,0.94
2023-03-11T09:00:59.292Z,0.39
2023-03-11T09:02:00.295Z,1.04
2023-03-11T09:03:01.303Z,1.2
2023-03-11T09:04:02.276Z,0.23
2023-03-11T09:05:03.307Z,0.91
2023-03-11T09:06:04.424Z,0.38
2023-03-11T09:07:05.199Z,1.1
2023-03-11T09:08:06.244Z,1.07
2023-03-11T09:09:07.350Z,1.41
2023-03-11T09:10:08.313Z,1.41
2023-03-11T09:11:09.347Z,1.61
2023-03-11T09:12:10.324Z,0.58
2023-03-11T09:13:11.223Z,0.88
2023-03-11T09:14:12.270Z,0.67
2023-03-11T09:15:13.348Z,0.82
2023-03-11T09:16:14.310Z,0.49
2023-03-11T09:17:15.310Z,0.75
2023-03-11T09:18:16.272Z,0.32
2023-03-11T09:19:17.511Z,0.5
2023-03-11T09:20:18.238Z,1.24
2023-03-11T09:21:19.271Z,0.97
2023-03-11T09:22:20.351Z,1.66
2023-03-11T09:23:21.360Z,1.49
2023-03-11T09:24:22.258Z,1.66
2023-03-11T09:25:23.293Z,0.91
2023-03-11T09:26:24.313Z,0.83
2023-03-11T09:27:25.279Z,1.14
2023-03-11T09:28:26.279Z,1
2023-03-11T09:29:27.286Z,1.61
2023-03-11T09:30:28.608Z,1.66
2023-03-11T09:31:29.359Z,1.19
2023-03-11T09:32:30.365Z,2.15
2023-03-11T09:33:31.394Z,0.96
2023-03-11T09:34:32.394Z,1.15
2023-03-11T09:35:33.536Z,0.89
2023-03-11T09:36:34.306Z,1.02
2023-03-11T09:37:35.210Z,1.38
2023-03-11T09:38:36.466Z,1.99
2023-03-11T09:39:37.313Z,2.19
2023-03-11T09:40:38.314Z,1.51
2023-03-11T09:41:51.483Z,0.6
2023-03-11T09:42:40.366Z,1.18
2023-03-11T09:43:41.421Z,0.25
2023-03-11T09:44:42.244Z,0.15
2023-03-11T09:45:43.314Z,0.83
2023-03-11T09:46:44.349Z,1.31
2023-03-11T09:47:45.333Z,1.27
2023-03-11T09:48:46.306Z,0.55
2023-03-11T09:49:47.260Z,0.5
2023-03-11T09:50:48.453Z,1.06
2023-03-11T09:51:49.258Z,0.63
2023-03-11T09:52:50.595Z,0.35
2023-03-11T09:53:51.372Z,0.59
2023-03-11T09:54:52.255Z,0.34
2023-03-11T09:55:53.392Z,0.48
2023-03-11T09:56:54.328Z,0.73
2023-03-11T09:57:55.281Z,1.07
2023-03-11T09:58:56.220Z,1.1
2023-03-11T09:59:57.267Z,0.51
2023-03-11T10:00:58.309Z,0.94
2023-03-11T10:01:59.436Z,1.05
2023-03-11T10:03:00.325Z,0.97
2023-03-11T10:04:01.359Z,0.87
2023-03-11T10:06:51.312Z,0.52
2023-03-11T10:07:52.278Z,0.98
2023-03-11T10:08:53.292Z,1.31
2023-03-11T10:09:54.254Z,0.43
2023-03-11T10:10:55.309Z,0.86
2023-03-11T10:11:56.274Z,1.34
2023-03-11T10:12:57.311Z,1.77
2023-03-11T10:13:58.291Z,0.88
2023-03-11T10:14:59.362Z,0.7
2023-03-11T10:16:00.435Z,1.07
2023-03-11T10:17:01.275Z,0.81
2023-03-11T10:18:02.287Z,0.37
2023-03-11T10:19:03.869Z,0.97
2023-03-11T10:20:05.421Z,1.37
2023-03-11T10:21:06.223Z,1.41
2023-03-11T10:22:07.362Z,0.55
2023-03-11T10:23:08.313Z,0.23
2023-03-11T10:24:09.416Z,0.33
2023-03-11T10:25:10.348Z,0.99
2023-03-11T10:26:11.251Z,0.85
2023-03-11T10:27:12.271Z,0.31
2023-03-11T10:28:13.276Z,0.47
2023-03-11T10:29:14.370Z,1.53
2023-03-11T10:30:15.311Z,0.36
2023-03-11T10:31:16.396Z,0.61
2023-03-11T10:32:17.487Z,0.57
2023-03-11T10:33:18.529Z,0.58
2023-03-11T10:34:19.339Z,0.28
2023-03-11T10:35:20.273Z,0.35
2023-03-11T10:36:21.334Z,0.31
2023-03-11T10:37:22.331Z,1.54
2023-03-11T10:38:23.373Z,1.41
2023-03-11T10:39:24.398Z,0.18
2023-03-11T10:40:25.338Z,0.55
2023-03-11T10:41:26.433Z,0.72
2023-03-11T10:42:27.292Z,0.77
2023-03-11T10:43:28.334Z,1.17
2023-03-11T10:44:29.295Z,0.45
2023-03-11T10:45:30.374Z,0.64
2023-03-11T10:46:31.324Z,0.7
2023-03-11T10:47:32.325Z,1.25
2023-03-11T10:48:33.371Z,1.36
2023-03-11T10:49:34.361Z,1
2023-03-11T10:50:36.467Z,0.76
2023-03-11T10:51:36.475Z,1.65
2023-03-11T10:52:37.273Z,1.22
2023-03-11T10:53:38.291Z,1.12
2023-03-11T10:54:39.404Z,1.9
2023-03-11T10:55:40.335Z,1.76
2023-03-11T10:56:41.370Z,1.02
2023-03-11T10:57:42.550Z,0.43
2023-03-11T10:58:43.384Z,1.33
2023-03-11T10:59:44.355Z,0.69
2023-03-11T11:00:45.392Z,1.33
2023-03-11T11:01:46.421Z,1.42
2023-03-11T11:02:47.293Z,1.05
2023-03-11T11:03:48.378Z,0.43
2023-03-11T11:04:49.368Z,1.81
2023-03-11T11:05:50.313Z,1.96
2023-03-11T11:06:51.317Z,1.93
2023-03-11T11:07:52.273Z,0.79
2023-03-11T11:08:53.335Z,0.22
2023-03-11T11:09:54.281Z,0.86
2023-03-11T11:10:55.315Z,1.11
2023-03-11T11:11:56.255Z,1.43
2023-03-11T11:12:57.382Z,0.98
2023-03-11T11:13:58.299Z,1.56
2023-03-11T11:14:59.440Z,0.69
2023-03-11T11:16:00.330Z,0.31
2023-03-11T11:17:01.373Z,0.78
2023-03-11T11:18:02.359Z,1.33
2023-03-11T11:19:03.341Z,1.24
2023-03-11T11:20:04.339Z,1.33
2023-03-11T11:21:05.330Z,0.86
2023-03-11T11:22:06.356Z,2.38
2023-03-11T11:23:07.243Z,0.71
2023-03-11T11:24:08.356Z,0.25
2023-03-11T11:25:09.402Z,0.14
2023-03-11T11:26:10.418Z,0.79
2023-03-11T11:27:11.444Z,1.33
2023-03-11T11:28:12.317Z,0.37
2023-03-11T11:29:13.321Z,1.19
2023-03-11T11:30:14.257Z,0.78
2023-03-11T11:31:15.361Z,0.66
2023-03-11T11:32:16.314Z,1.35
2023-03-11T11:33:17.294Z,0.97
2023-03-11T11:34:18.304Z,1
2023-03-11T11:35:19.422Z,0.46
2023-03-11T11:36:20.587Z,0.2
2023-03-11T11:37:21.281Z,0.85
2023-03-11T11:38:22.368Z,0.39
2023-03-11T11:39:23.397Z,0.45
2023-03-11T11:40:24.404Z,0.44
2023-03-11T11:41:25.325Z,0.21
2023-03-11T11:42:26.239Z,1.05
2023-03-11T11:43:27.343Z,0.55
2023-03-11T11:44:28.460Z,0.85
2023-03-11T11:45:29.315Z,0.87
2023-03-11T11:46:30.435Z,0.87
2023-03-11T11:47:31.323Z,1.26
2023-03-11T11:48:32.285Z,1.42
2023-03-11T11:49:33.359Z,0.51
2023-03-11T11:50:34.490Z,0.11
2023-03-11T11:51:35.373Z,0.25
2023-03-11T11:52:36.367Z,1.14
2023-03-11T11:53:37.935Z,0.72
2023-03-11T11:54:39.408Z,0.4
2023-03-11T11:55:40.354Z,0.4
2023-03-11T11:56:41.366Z,1.5
2023-03-11T11:57:42.408Z,0.44
2023-03-11T11:58:43.324Z,0.96
2023-03-11T11:59:44.443Z,1.25
2023-03-11T12:00:45.335Z,1.61
2023-03-11T12:01:46.435Z,0.43
2023-03-11T12:02:47.391Z,1.07
2023-03-11T12:03:48.419Z,0.64
2023-03-11T12:04:49.356Z,1.18
2023-03-11T12:05:50.452Z,0.54
2023-03-11T12:06:51.369Z,0.1
2023-03-11T12:07:52.353Z,0.68
2023-03-11T12:08:53.274Z,0.4
2023-03-11T12:09:54.392Z,0.33
2023-03-11T12:10:55.409Z,0.63
2023-03-11T12:11:56.337Z,0.86
2023-03-11T12:12:57.416Z,0.87
2023-03-11T12:13:58.328Z,0.49
2023-03-11T12:14:59.361Z,0.57
2023-03-11T12:16:00.415Z,0.64
2023-03-11T12:17:03.351Z,1.22
2023-03-11T12:18:02.340Z,0.49
2023-03-11T12:19:03.333Z,1.05
2023-03-11T12:20:04.357Z,0.94
2023-03-11T12:21:05.364Z,0.17
2023-03-11T12:22:06.391Z,0.46
2023-03-11T12:23:07.471Z,0.8
2023-03-11T12:24:08.404Z,1.08
2023-03-11T12:25:09.401Z,0.37
2023-03-11T12:26:10.372Z,1.68
2023-03-11T12:27:11.553Z,2.07
2023-03-11T12:28:12.443Z,1.3
2023-03-11T12:29:15.978Z,1.6
2023-03-11T12:30:15.447Z,2.09
2023-03-11T12:31:16.447Z,1.6
2023-03-11T12:32:17.478Z,1.88
2023-03-11T12:33:18.353Z,1.24
2023-03-11T12:34:19.361Z,1.49
2023-03-11T12:35:20.699Z,1.3
2023-03-11T12:36:22.438Z,1.44
2023-03-11T12:37:23.409Z,1.24
2023-03-11T12:38:24.439Z,1.14
2023-03-11T12:39:25.361Z,1.25
2023-03-11T12:40:26.457Z,0.63
2023-03-11T12:41:27.401Z,0.64
2023-03-11T12:42:28.471Z,1.32
2023-03-11T12:43:29.395Z,1.07
2023-03-11T12:44:30.379Z,0.84
2023-03-11T12:45:31.433Z,1.52
2023-03-11T12:46:32.413Z,1.04
2023-03-11T12:47:35.665Z,0.87
2023-03-11T12:48:34.553Z,1.61
2023-03-11T12:49:35.558Z,2.69
2023-03-11T12:50:36.433Z,1.93
2023-03-11T12:51:37.418Z,0.56
2023-03-11T12:52:38.332Z,0.49
2023-03-11T12:53:39.561Z,0.99
2023-03-11T12:54:40.495Z,1.38
2023-03-11T12:55:41.398Z,1.36
2023-03-11T12:56:42.399Z,1.3
2023-03-11T12:57:43.431Z,0.83
2023-03-11T12:58:44.398Z,0.88
2023-03-11T12:59:45.413Z,1.47
2023-03-11T13:00:46.554Z,0.47
2023-03-11T13:01:47.431Z,0.58
2023-03-11T13:02:48.636Z,1.3
2023-03-11T13:03:49.456Z,1.5
2023-03-11T13:04:50.716Z,0.94
2023-03-11T13:05:51.431Z,1.31
2023-03-11T13:06:52.485Z,1.09
2023-03-11T13:07:53.378Z,0.68
2023-03-11T13:08:54.356Z,1.29
2023-03-11T13:09:55.537Z,0.57
2023-03-11T13:10:56.473Z,0.34
2023-03-11T13:11:57.387Z,0.59
2023-03-11T13:12:58.358Z,0.39
2023-03-11T13:13:59.458Z,0.11
2023-03-11T13:15:02.417Z,0.68
2023-03-11T13:16:01.573Z,0.54
2023-03-11T13:17:02.479Z,0.77
2023-03-11T13:18:03.424Z,0.2
2023-03-11T13:19:04.379Z,0.28
2023-03-11T13:20:05.458Z,0
2023-03-11T13:21:06.538Z,0.27
2023-03-11T13:22:07.489Z,0.71
2023-03-11T13:23:08.460Z,0.91
2023-03-11T13:24:09.421Z,0.27
2023-03-11T13:25:10.480Z,0.73
2023-03-11T13:26:11.440Z,1.48
2023-03-11T13:27:12.403Z,0.77
2023-03-11T13:28:13.423Z,0.5
2023-03-11T13:29:14.420Z,0.61
2023-03-11T13:30:15.528Z,0.86
2023-03-11T13:31:16.466Z,1.15
2023-03-11T13:32:17.516Z,1.25
2023-03-11T13:33:18.439Z,1
2023-03-11T13:34:19.464Z,1.13
2023-03-11T13:35:20.420Z,1.15
2023-03-11T13:36:21.400Z,0.61
2023-03-11T13:37:22.428Z,0.79
2023-03-11T13:38:23.453Z,0.46
2023-03-11T13:39:24.405Z,0.64
2023-03-11T13:40:25.419Z,0.35
2023-03-11T13:41:26.400Z,0.34